createdAt,value
2023-01-09T00:02:24.030Z,94813.38
2023-01-09T00:04:51.934Z,94836.63
2023-01-09T00:07:21.263Z,94832.66
2023-01-09T00:09:49.202Z,94827.75
2023-01-09T00:12:17.135Z,94831.63
2023-01-09T00:14:45.124Z,94825.97
2023-01-09T00:17:13.046Z,94822.94
2023-01-09T00:19:41.164Z,94817.59
2023-01-09T00:22:09.665Z,94810.50
2023-01-09T00:24:39.026Z,94821.81
2023-01-09T00:27:07.194Z,94816.56
2023-01-09T00:29:35.213Z,94815.16
2023-01-09T00:32:03.457Z,94823.66
2023-01-09T00:34:31.440Z,94820.50
2023-01-09T00:36:59.319Z,94823.53
2023-01-09T00:39:27.170Z,94829.13
2023-01-09T00:41:58.708Z,94821.22
2023-01-09T00:44:31.273Z,94820.97
2023-01-09T00:47:02.769Z,94814.69
2023-01-09T00:49:35.457Z,94815.38
2023-01-09T00:52:04.306Z,94814.69
2023-01-09T00:54:33.630Z,94818.50
2023-01-09T00:57:03.032Z,94815.34
2023-01-09T00:59:31.036Z,94812.22
2023-01-09T01:01:59.181Z,94815.25
2023-01-09T01:04:44.980Z,94817.34
2023-01-09T01:07:30.495Z,94816.19
2023-01-09T01:09:58.483Z,94813.94
2023-01-09T01:12:27.928Z,94815.81
2023-01-09T01:14:55.847Z,94810.56
2023-01-09T01:17:23.865Z,94794.91
2023-01-09T01:19:51.722Z,94799.34
2023-01-09T01:22:19.634Z,94793.19
2023-01-09T01:24:47.759Z,94792.34
2023-01-09T01:27:15.792Z,94786.50
2023-01-09T01:29:45.260Z,94796.28
2023-01-09T01:32:13.333Z,94788.34
2023-01-09T01:34:41.231Z,94784.06
2023-01-09T01:37:09.194Z,94781.94
2023-01-09T01:39:37.351Z,94768.41
2023-01-09T01:42:05.602Z,94777.28
2023-01-09T01:45:01.172Z,94769.81
2023-01-09T01:47:36.805Z,94767.72
2023-01-09T01:50:10.818Z,94763.28
2023-01-09T01:52:39.585Z,94759.78
2023-01-09T01:55:10.391Z,94757.09
2023-01-09T01:57:41.553Z,94741.06
2023-01-09T02:00:13.265Z,94751.41
2023-01-09T02:02:43.530Z,94743.16
2023-01-09T02:05:11.886Z,94740.69
2023-01-09T02:07:39.839Z,94737.38
2023-01-09T02:10:09.503Z,94733.03
2023-01-09T02:12:38.389Z,94727.47
2023-01-09T02:15:11.101Z,94728.38
2023-01-09T02:18:04.452Z,94737.47
2023-01-09T02:20:43.433Z,94731.75
2023-01-09T02:23:57.792Z,94740.50
2023-01-09T02:26:47.396Z,94744.03
2023-01-09T02:30:08.701Z,94736.25
2023-01-09T02:32:46.539Z,94728.47
2023-01-09T02:35:36.926Z,94731.03
2023-01-09T02:38:14.475Z,94724.25
2023-01-09T02:40:48.254Z,94723.94
2023-01-09T02:43:17.075Z,94723.56
2023-01-09T02:45:45.035Z,94722.44
2023-01-09T02:48:14.645Z,94721.50
2023-01-09T02:50:48.962Z,94720.22
2023-01-09T02:54:02.494Z,94721.94
2023-01-09T02:57:02.788Z,94723.44
2023-01-09T02:59:37.223Z,94724.03
2023-01-09T03:02:35.296Z,94722.38
2023-01-09T03:05:12.532Z,94714.59
2023-01-09T03:07:45.026Z,94713.50
2023-01-09T03:10:17.348Z,94725.81
2023-01-09T03:12:48.813Z,94714.19
2023-01-09T03:15:19.415Z,94719.75
2023-01-09T03:17:50.533Z,94715.91
2023-01-09T03:20:24.696Z,94712.19
2023-01-09T03:22:57.879Z,94718.50
2023-01-09T03:25:27.135Z,94720.16
2023-01-09T03:27:58.528Z,94719.69
2023-01-09T03:30:28.714Z,94722.06
2023-01-09T03:32:56.884Z,94723.34
2023-01-09T03:35:26.481Z,94712.03
2023-01-09T03:37:54.400Z,94723.91
2023-01-09T03:40:23.232Z,94725.06
2023-01-09T03:42:51.158Z,94727.59
2023-01-09T03:45:19.038Z,94721.88
2023-01-09T03:47:46.990Z,94711.41
2023-01-09T03:50:14.995Z,94715.91
2023-01-09T03:52:44.293Z,94718.03
2023-01-09T03:55:14.243Z,94721.22
2023-01-09T03:57:43.337Z,94724.13
2023-01-09T04:00:12.512Z,94708.66
2023-01-09T04:02:40.448Z,94716.56
2023-01-09T04:05:09.533Z,94722.44
2023-01-09T04:07:37.504Z,94717.22
2023-01-09T04:10:07.556Z,94723.72
2023-01-09T04:12:35.441Z,94718.25
2023-01-09T04:15:03.368Z,94720.00
2023-01-09T04:17:31.311Z,94720.91
2023-01-09T04:19:59.492Z,94714.94
2023-01-09T04:22:27.495Z,94713.91
2023-01-09T04:24:55.412Z,94706.13
2023-01-09T04:27:24.716Z,94716.75
2023-01-09T04:29:52.664Z,94701.16
2023-01-09T04:32:20.638Z,94709.31
2023-01-09T04:34:48.690Z,94709.22
2023-01-09T04:37:16.612Z,94707.16
2023-01-09T04:39:44.545Z,94701.91
2023-01-09T04:42:12.877Z,94696.69
2023-01-09T04:44:42.195Z,94690.22
2023-01-09T04:47:10.480Z,94693.88
2023-01-09T04:49:38.366Z,94697.97
2023-01-09T04:52:07.074Z,94690.84
2023-01-09T04:54:35.209Z,94697.91
2023-01-09T04:57:03.159Z,94695.56
2023-01-09T04:59:31.018Z,94685.22
2023-01-09T05:02:00.615Z,94686.56
2023-01-09T05:04:28.758Z,94674.66
2023-01-09T05:06:56.773Z,94690.53
2023-01-09T05:09:24.741Z,94693.53
2023-01-09T05:11:53.081Z,94695.38
2023-01-09T05:14:21.455Z,94688.88
2023-01-09T05:16:49.450Z,94692.28
2023-01-09T05:19:18.888Z,94697.72
2023-01-09T05:21:46.825Z,94699.34
2023-01-09T05:24:14.721Z,94702.06
2023-01-09T05:26:42.612Z,94714.59
2023-01-09T05:29:11.248Z,94699.16
2023-01-09T05:31:39.114Z,94698.75
2023-01-09T05:34:07.162Z,94707.03
2023-01-09T05:36:36.456Z,94700.28
2023-01-09T05:39:05.662Z,94692.06
2023-01-09T05:41:33.641Z,94685.44
2023-01-09T05:44:01.593Z,94687.78
2023-01-09T05:46:29.721Z,94686.31
2023-01-09T05:48:57.772Z,94678.53
2023-01-09T05:51:25.840Z,94683.84
2023-01-09T05:53:55.138Z,94669.94
2023-01-09T05:56:23.024Z,94681.41
2023-01-09T05:58:50.989Z,94682.38
2023-01-09T06:01:18.944Z,94691.97
2023-01-09T06:03:46.995Z,94686.94
2023-01-09T06:06:15.021Z,94675.59
2023-01-09T06:08:42.924Z,94680.16
2023-01-09T06:11:12.267Z,94681.50
2023-01-09T06:13:40.258Z,94677.00
2023-01-09T06:16:09.292Z,94675.31
2023-01-09T06:18:37.258Z,94674.94
2023-01-09T06:21:05.557Z,94673.41
2023-01-09T06:23:33.536Z,94678.66
2023-01-09T06:26:01.464Z,94663.13
2023-01-09T06:28:30.814Z,94676.03
2023-01-09T06:30:58.809Z,94656.75
2023-01-09T06:33:26.723Z,94672.53
2023-01-09T06:35:54.717Z,94669.03
2023-01-09T06:38:22.696Z,94675.94
2023-01-09T06:40:50.960Z,94673.41
2023-01-09T06:43:18.897Z,94669.34
2023-01-09T06:45:48.319Z,94671.69
2023-01-09T06:48:16.348Z,94666.00
2023-01-09T06:50:45.810Z,94674.28
2023-01-09T06:53:13.748Z,94672.78
2023-01-09T06:55:41.693Z,94664.88
2023-01-09T06:58:09.655Z,94675.63
2023-01-09T07:00:38.025Z,94678.88
2023-01-09T07:03:07.392Z,94676.00
2023-01-09T07:05:41.281Z,94671.22
2023-01-09T07:08:09.758Z,94673.44
2023-01-09T07:10:37.726Z,94673.19
2023-01-09T07:13:05.808Z,94655.84
2023-01-09T07:15:33.989Z,94666.69
2023-01-09T07:18:01.919Z,94665.25
2023-01-09T07:20:31.460Z,94670.50
2023-01-09T07:22:59.719Z,94669.84
2023-01-09T07:25:27.678Z,94673.31
2023-01-09T07:27:55.677Z,94678.91
2023-01-09T07:30:23.949Z,94672.63
2023-01-09T07:32:51.847Z,94655.84
2023-01-09T07:35:19.795Z,94668.75
2023-01-09T07:37:49.163Z,94670.72
2023-01-09T07:40:17.311Z,94657.88
2023-01-09T07:42:45.273Z,94677.59
2023-01-09T07:45:13.278Z,94677.78
2023-01-09T07:47:41.839Z,94671.97
2023-01-09T07:50:10.937Z,94682.31
2023-01-09T07:52:39.053Z,94673.53
2023-01-09T07:55:10.240Z,94691.53
2023-01-09T07:57:38.257Z,94692.53
2023-01-09T08:00:11.001Z,94693.84
2023-01-09T08:02:38.953Z,94693.72
2023-01-09T08:05:08.911Z,94699.72
2023-01-09T08:07:37.079Z,94690.88
2023-01-09T08:10:05.571Z,94685.59
2023-01-09T08:12:34.992Z,94699.88
2023-01-09T08:15:03.070Z,94699.16
2023-01-09T08:17:30.986Z,94687.56
2023-01-09T08:19:58.912Z,94695.03
2023-01-09T08:22:26.935Z,94694.91
2023-01-09T08:24:54.882Z,94702.38
2023-01-09T08:27:22.914Z,94698.84
2023-01-09T08:29:52.314Z,94692.78
2023-01-09T08:32:20.252Z,94696.66
2023-01-09T08:34:48.330Z,94701.94
2023-01-09T08:37:16.512Z,94696.69
2023-01-09T08:39:44.447Z,94696.44
2023-01-09T08:42:29.637Z,94708.63
2023-01-09T08:45:24.954Z,94698.34
2023-01-09T08:47:52.928Z,94692.59
2023-01-09T08:50:21.099Z,94690.63
2023-01-09T08:52:49.102Z,94682.59
2023-01-09T08:55:17.118Z,94687.72
2023-01-09T08:57:49.529Z,94683.97
2023-01-09T09:00:20.315Z,94676.66
2023-01-09T09:02:52.239Z,94673.72
2023-01-09T09:05:20.706Z,94672.22
2023-01-09T09:07:49.925Z,94673.84
2023-01-09T09:10:18.099Z,94667.19
2023-01-09T09:12:46.251Z,94651.75
2023-01-09T09:15:16.426Z,94657.16
2023-01-09T09:17:45.921Z,94647.75
2023-01-09T09:20:13.934Z,94646.38
2023-01-09T09:22:41.898Z,94649.34
2023-01-09T09:25:10.296Z,94625.72
2023-01-09T09:27:38.329Z,94627.97
2023-01-09T09:30:07.592Z,94629.53
2023-01-09T09:32:36.027Z,94634.13
2023-01-09T09:35:08.743Z,94622.31
2023-01-09T09:37:37.424Z,94611.31
2023-01-09T09:40:17.824Z,94608.59
2023-01-09T09:43:22.986Z,94594.63
2023-01-09T09:45:58.943Z,94594.16
2023-01-09T09:48:37.486Z,94584.09
2023-01-09T09:51:53.127Z,94571.16
2023-01-09T09:54:25.204Z,94545.69
2023-01-09T09:56:57.905Z,94548.31
2023-01-09T09:59:28.766Z,94553.47
2023-01-09T10:02:00.370Z,94545.34
2023-01-09T10:04:32.242Z,94526.78
2023-01-09T10:07:06.264Z,94513.94
2023-01-09T10:09:45.933Z,94510.41
2023-01-09T10:12:27.482Z,94505.81
2023-01-09T10:14:56.337Z,94501.34
2023-01-09T10:17:45.620Z,94487.53
2023-01-09T10:20:43.307Z,94497.16
2023-01-09T10:23:42.403Z,94485.69
2023-01-09T10:26:17.011Z,94484.97
2023-01-09T10:29:10.247Z,94478.28
2023-01-09T10:31:50.216Z,94474.53
2023-01-09T10:34:32.478Z,94475.97
2023-01-09T10:37:09.852Z,94456.91
2023-01-09T10:39:45.354Z,94471.59
2023-01-09T10:42:23.057Z,94465.31
2023-01-09T10:44:58.089Z,94445.22
2023-01-09T10:47:31.552Z,94448.53
2023-01-09T10:50:00.849Z,94439.81
2023-01-09T10:52:36.610Z,94434.66
2023-01-09T10:55:19.350Z,94430.81
2023-01-09T10:57:52.019Z,94435.78
2023-01-09T11:00:23.884Z,94418.69
2023-01-09T11:02:53.504Z,94413.91
2023-01-09T11:05:23.399Z,94410.72
2023-01-09T11:07:56.659Z,94403.94
2023-01-09T11:10:46.749Z,94401.22
2023-01-09T11:13:19.040Z,94393.69
2023-01-09T11:15:47.109Z,94398.41
2023-01-09T11:18:24.528Z,94400.53
2023-01-09T11:20:53.374Z,94401.97
2023-01-09T11:23:27.056Z,94392.47
2023-01-09T11:25:59.432Z,94393.38
2023-01-09T11:28:28.258Z,94390.13
2023-01-09T11:30:59.841Z,94375.59
2023-01-09T11:33:29.752Z,94389.78
2023-01-09T11:36:08.077Z,94390.53
2023-01-09T11:38:49.390Z,94397.72
2023-01-09T11:41:22.476Z,94385.97
2023-01-09T11:43:52.629Z,94380.59
2023-01-09T11:46:39.648Z,94379.13
2023-01-09T11:49:22.940Z,94378.50
2023-01-09T11:52:13.093Z,94373.16
2023-01-09T11:54:46.099Z,94383.09
2023-01-09T11:57:15.556Z,94379.22
2023-01-09T11:59:43.528Z,94372.22
2023-01-09T12:02:42.508Z,94347.66
2023-01-09T12:05:25.410Z,94358.47
2023-01-09T12:08:14.275Z,94353.59
2023-01-09T12:11:01.364Z,94349.84
2023-01-09T12:13:50.086Z,94346.00
2023-01-09T12:16:28.072Z,94335.91
2023-01-09T12:19:12.172Z,94331.50
2023-01-09T12:21:47.649Z,94320.66
2023-01-09T12:24:54.572Z,94324.13
2023-01-09T12:27:35.037Z,94321.91
2023-01-09T12:30:20.835Z,94314.88
2023-01-09T12:33:03.223Z,94309.78
2023-01-09T12:35:37.013Z,94311.53
2023-01-09T12:38:24.212Z,94310.03
2023-01-09T12:41:23.129Z,94302.84
2023-01-09T12:44:03.727Z,94316.50
2023-01-09T12:46:41.134Z,94299.91
2023-01-09T12:49:24.678Z,94302.47
2023-01-09T12:52:02.089Z,94290.13
2023-01-09T12:54:37.392Z,94268.56
2023-01-09T12:57:11.358Z,94292.97
2023-01-09T12:59:44.527Z,94295.16
2023-01-09T13:02:25.163Z,94286.78
2023-01-09T13:04:59.435Z,94285.00
2023-01-09T13:07:31.507Z,94273.59
2023-01-09T13:10:06.397Z,94271.09
2023-01-09T13:12:39.664Z,94280.41
2023-01-09T13:15:20.614Z,94274.03
2023-01-09T13:17:54.071Z,94289.22
2023-01-09T13:20:24.264Z,94290.38
2023-01-09T13:22:54.041Z,94269.63
2023-01-09T13:25:44.859Z,94279.72
2023-01-09T13:28:20.102Z,94288.41
2023-01-09T13:31:14.414Z,94265.97
2023-01-09T13:33:47.701Z,94254.50
2023-01-09T13:36:25.360Z,94254.28
2023-01-09T13:38:54.965Z,94275.19
2023-01-09T13:41:40.513Z,94261.63
2023-01-09T13:44:24.071Z,94257.59
2023-01-09T13:46:54.531Z,94256.97
2023-01-09T13:50:06.509Z,94252.59
2023-01-09T13:52:37.387Z,94249.13
2023-01-09T13:55:36.310Z,94263.47
2023-01-09T13:58:26.798Z,94263.09
2023-01-09T14:00:57.659Z,94267.44
2023-01-09T14:03:31.617Z,94273.84
2023-01-09T14:06:19.080Z,94273.91
2023-01-09T14:08:50.616Z,94250.88
2023-01-09T14:11:21.785Z,94262.38
2023-01-09T14:14:00.283Z,94249.63
2023-01-09T14:16:28.729Z,94262.84
2023-01-09T14:19:03.535Z,94262.38
2023-01-09T14:21:48.124Z,94247.81
2023-01-09T14:24:24.122Z,94246.00
2023-01-09T14:26:56.644Z,94237.09
2023-01-09T14:29:45.887Z,94225.59
2023-01-09T14:32:39.336Z,94233.78
2023-01-09T14:35:17.577Z,94222.28
2023-01-09T14:37:57.600Z,94209.97
2023-01-09T14:40:25.608Z,94204.31
2023-01-09T14:42:55.515Z,94236.28
2023-01-09T14:45:26.235Z,94231.38
2023-01-09T14:47:59.316Z,94242.47
2023-01-09T14:50:33.339Z,94218.31
2023-01-09T14:53:08.033Z,94224.31
2023-01-09T14:55:44.175Z,94215.47
2023-01-09T14:58:13.940Z,94214.69
2023-01-09T15:00:50.455Z,94216.91
2023-01-09T15:03:18.842Z,94217.06
2023-01-09T15:05:48.145Z,94217.19
2023-01-09T15:08:21.717Z,94204.00
2023-01-09T15:10:52.236Z,94195.69
2023-01-09T15:13:28.183Z,94209.06
2023-01-09T15:15:56.825Z,94203.72
2023-01-09T15:18:28.677Z,94205.72
2023-01-09T15:21:00.028Z,94195.16
2023-01-09T15:23:30.987Z,94169.84
2023-01-09T15:25:59.345Z,94180.31
2023-01-09T15:28:32.175Z,94192.59
2023-01-09T15:31:07.365Z,94191.81
2023-01-09T15:33:36.393Z,94192.78
2023-01-09T15:36:12.272Z,94198.91
2023-01-09T15:38:43.617Z,94174.91
2023-01-09T15:41:14.400Z,94196.16
2023-01-09T15:43:45.263Z,94188.03
2023-01-09T15:46:17.060Z,94185.97
2023-01-09T15:48:45.278Z,94191.19
2023-01-09T15:51:17.693Z,94191.13
2023-01-09T15:53:49.597Z,94172.22
2023-01-09T15:56:19.727Z,94180.72
2023-01-09T15:58:49.054Z,94201.38
2023-01-09T16:01:29.971Z,94192.34
2023-01-09T16:04:05.785Z,94178.38
2023-01-09T16:06:37.266Z,94179.91
2023-01-09T16:09:17.388Z,94182.47
2023-01-09T16:11:52.133Z,94179.81
2023-01-09T16:14:23.291Z,94162.03
2023-01-09T16:16:53.450Z,94194.00
2023-01-09T16:19:32.804Z,94171.25
2023-01-09T16:22:02.807Z,94167.22
2023-01-09T16:24:41.360Z,94182.94
2023-01-09T16:27:14.073Z,94172.28
2023-01-09T16:29:49.733Z,94139.41
2023-01-09T16:32:22.419Z,94165.94
2023-01-09T16:34:54.379Z,94140.72
2023-01-09T16:37:22.807Z,94134.53
2023-01-09T16:40:29.992Z,94167.13
2023-01-09T16:43:00.673Z,94131.50
2023-01-09T16:45:30.384Z,94136.63
2023-01-09T16:47:58.979Z,94094.63
2023-01-09T16:50:27.433Z,94147.34
2023-01-09T16:52:56.994Z,94125.53
2023-01-09T16:55:24.996Z,94133.78
2023-01-09T16:57:53.121Z,94127.53
2023-01-09T17:00:23.023Z,94133.06
2023-01-09T17:02:55.102Z,94144.81
2023-01-09T17:05:23.261Z,94130.00
2023-01-09T17:07:51.256Z,94135.94
2023-01-09T17:10:23.067Z,94143.13
2023-01-09T17:12:51.039Z,94151.66
2023-01-09T17:15:19.165Z,94161.13
2023-01-09T17:17:48.753Z,94118.63
2023-01-09T17:20:18.968Z,94134.31
2023-01-09T17:22:52.051Z,94131.84
2023-01-09T17:25:38.633Z,94129.88
2023-01-09T17:28:24.649Z,94137.56
2023-01-09T17:30:52.668Z,94130.78
2023-01-09T17:33:21.983Z,94104.59
2023-01-09T17:35:52.342Z,94130.25
2023-01-09T17:38:20.460Z,94130.00
2023-01-09T17:40:48.422Z,94098.66
2023-01-09T17:43:16.922Z,94100.94
2023-01-09T17:45:45.388Z,94086.53
2023-01-09T17:48:16.728Z,94105.31
2023-01-09T17:50:47.161Z,94096.44
2023-01-09T17:53:15.457Z,94095.19
2023-01-09T17:55:43.830Z,94106.53
2023-01-09T17:58:27.834Z,94095.38
2023-01-09T18:00:56.444Z,94132.00
2023-01-09T18:03:26.590Z,94099.53
2023-01-09T18:05:57.869Z,94102.56
2023-01-09T18:08:26.198Z,94100.22
2023-01-09T18:10:54.840Z,94048.28
2023-01-09T18:13:24.399Z,94056.03
2023-01-09T18:15:52.656Z,94049.28
2023-01-09T18:18:22.591Z,94065.78
2023-01-09T18:20:51.492Z,94051.25
2023-01-09T18:23:21.890Z,94052.69
2023-01-09T18:25:50.531Z,94087.19
2023-01-09T18:28:19.200Z,94067.56
2023-01-09T18:30:49.219Z,94097.25
2023-01-09T18:33:18.005Z,94063.19
2023-01-09T18:35:46.852Z,94060.25
2023-01-09T18:38:17.659Z,94068.34
2023-01-09T18:40:47.697Z,94072.00
2023-01-09T18:43:16.693Z,94074.28
2023-01-09T18:45:45.587Z,94082.41
2023-01-09T18:48:14.016Z,94081.22
2023-01-09T18:50:44.707Z,94070.91
2023-01-09T18:53:13.600Z,94073.25
2023-01-09T18:55:42.372Z,94065.44
2023-01-09T18:58:12.159Z,94092.38
2023-01-09T19:00:41.445Z,94086.28
2023-01-09T19:03:09.578Z,94071.50
2023-01-09T19:05:37.595Z,94078.03
2023-01-09T19:08:06.143Z,94068.75
2023-01-09T19:10:34.948Z,94046.91
2023-01-09T19:13:03.421Z,94040.78
2023-01-09T19:15:34.834Z,94066.38
2023-01-09T19:18:04.966Z,94022.59
2023-01-09T19:20:33.190Z,94060.13
2023-01-09T19:23:02.948Z,94054.56
2023-01-09T19:25:33.261Z,94066.72
2023-01-09T19:28:01.239Z,94068.38
2023-01-09T19:30:29.556Z,94037.50
2023-01-09T19:32:58.955Z,94063.81
2023-01-09T19:35:27.118Z,94063.53
2023-01-09T19:37:55.125Z,94068.53
2023-01-09T19:40:23.154Z,94061.19
2023-01-09T19:42:54.164Z,94053.78
2023-01-09T19:45:22.394Z,94044.81
2023-01-09T19:47:50.393Z,94024.53
2023-01-09T19:50:20.089Z,94054.53
2023-01-09T19:52:49.331Z,94058.25
2023-01-09T19:55:17.439Z,94050.41
2023-01-09T19:57:46.747Z,94046.25
2023-01-09T20:00:15.884Z,94022.28
2023-01-09T20:02:43.892Z,94024.19
2023-01-09T20:05:11.886Z,94008.00
2023-01-09T20:07:41.844Z,94008.72
2023-01-09T20:10:10.879Z,94007.56
2023-01-09T20:12:38.796Z,93999.44
2023-01-09T20:15:10.015Z,93994.91
2023-01-09T20:17:37.954Z,93993.13
2023-01-09T20:20:07.454Z,93997.06
2023-01-09T20:22:35.549Z,93970.75
2023-01-09T20:25:05.003Z,93989.16
2023-01-09T20:27:32.860Z,93976.41
2023-01-09T20:30:02.047Z,93967.97
2023-01-09T20:32:32.375Z,93959.66
2023-01-09T20:35:02.489Z,93966.66
2023-01-09T20:37:31.590Z,93937.44
2023-01-09T20:39:59.706Z,93987.94
2023-01-09T20:42:29.066Z,93977.16
2023-01-09T20:44:57.206Z,93981.63
2023-01-09T20:47:25.978Z,93964.44
2023-01-09T20:49:53.936Z,93971.22
2023-01-09T20:52:22.594Z,93944.41
2023-01-09T20:54:50.513Z,93965.91
2023-01-09T20:57:18.402Z,93961.09
2023-01-09T20:59:47.936Z,93960.34
2023-01-09T21:02:15.916Z,93927.16
2023-01-09T21:04:43.898Z,93955.25
2023-01-09T21:07:12.319Z,93936.38
2023-01-09T21:09:40.284Z,93881.28
2023-01-09T21:12:24.791Z,93948.66
2023-01-09T21:14:54.611Z,93917.00
2023-01-09T21:17:22.817Z,93918.69
2023-01-09T21:19:51.305Z,93895.63
2023-01-09T21:22:19.278Z,93918.84
2023-01-09T21:24:50.098Z,93921.56
2023-01-09T21:27:18.265Z,93927.06
2023-01-09T21:29:46.691Z,93877.50
2023-01-09T21:32:18.184Z,93953.16
2023-01-09T21:34:46.189Z,93890.72
2023-01-09T21:37:14.986Z,93902.16
2023-01-09T21:39:43.249Z,93886.84
2023-01-09T21:42:28.856Z,93913.47
2023-01-09T21:45:14.036Z,93903.50
2023-01-09T21:47:43.372Z,93916.72
2023-01-09T21:50:12.151Z,93904.75
2023-01-09T21:52:40.035Z,93884.34
2023-01-09T21:55:09.001Z,93896.16
2023-01-09T21:57:37.185Z,93895.56
2023-01-09T22:00:05.685Z,93893.56
2023-01-09T22:02:34.440Z,93858.69
2023-01-09T22:05:03.793Z,93868.63
2023-01-09T22:07:31.821Z,93872.22
2023-01-09T22:09:59.844Z,93865.69
2023-01-09T22:12:27.808Z,93895.63
2023-01-09T22:14:55.850Z,93864.50
2023-01-09T22:17:23.858Z,93863.78
2023-01-09T22:19:51.821Z,93885.28
2023-01-09T22:22:21.187Z,93883.97
2023-01-09T22:24:50.012Z,93864.56
2023-01-09T22:27:18.003Z,93864.78
2023-01-09T22:29:45.953Z,93884.13
2023-01-09T22:32:13.834Z,93880.34
2023-01-09T22:34:41.745Z,93847.69
2023-01-09T22:37:09.689Z,93870.28
2023-01-09T22:39:39.006Z,93873.59
2023-01-09T22:42:06.946Z,93870.06
2023-01-09T22:44:34.952Z,93870.16
2023-01-09T22:47:02.936Z,93854.38
2023-01-09T22:49:41.132Z,93864.03
2023-01-09T22:52:18.826Z,93827.25
2023-01-09T22:54:48.746Z,93823.81
2023-01-09T22:57:16.668Z,93877.81
2023-01-09T22:59:44.669Z,93807.63
2023-01-09T23:02:12.725Z,93841.16
2023-01-09T23:04:40.631Z,93855.63
2023-01-09T23:07:08.529Z,93859.81
2023-01-09T23:09:36.421Z,93886.16
2023-01-09T23:12:06.726Z,93809.63
2023-01-09T23:14:36.957Z,93790.59
2023-01-09T23:17:06.288Z,93830.53
2023-01-09T23:19:34.809Z,93846.66
2023-01-09T23:22:03.506Z,93762.59
2023-01-09T23:24:32.630Z,93775.66
2023-01-09T23:27:00.572Z,93828.22
2023-01-09T23:29:30.019Z,93849.47
2023-01-09T23:31:58.151Z,93795.91
2023-01-09T23:34:27.661Z,93831.91
2023-01-09T23:36:57.775Z,93802.97
2023-01-09T23:39:25.761Z,93800.00
2023-01-09T23:42:11.192Z,93793.19
2023-01-09T23:44:40.525Z,93766.03
2023-01-09T23:47:08.511Z,93797.72
2023-01-09T23:49:36.503Z,93764.94
2023-01-09T23:52:06.248Z,93786.50
2023-01-09T23:54:34.169Z,93762.22
2023-01-09T23:57:02.356Z,93780.06
2023-01-09T23:59:30.511Z,93761.94
